createdAt,value
2023-08-15T00:03:15.643Z,1.2
2023-08-15T00:09:00.723Z,1.3
2023-08-15T00:14:01.633Z,1.0
2023-08-15T00:19:02.462Z,1.1
2023-08-15T00:24:03.233Z,1.0
2023-08-15T00:29:03.984Z,1.1
2023-08-15T00:34:04.914Z,1.0
2023-08-15T00:39:05.759Z,1.2
2023-08-15T00:44:06.485Z,1.3
2023-08-15T00:49:07.224Z,1.2
2023-08-15T00:54:08.113Z,1.2
2023-08-15T00:59:08.887Z,1.1
2023-08-15T01:04:09.670Z,1.1
2023-08-15T01:09:10.415Z,1.1
2023-08-15T01:14:11.126Z,0.9
2023-08-15T01:19:11.883Z,1.1
2023-08-15T01:24:12.895Z,1.2
2023-08-15T01:29:13.705Z,1.2
2023-08-15T01:34:14.491Z,0.9
2023-08-15T01:39:15.224Z,1.1
2023-08-15T01:44:16.042Z,1.0
2023-08-15T01:49:16.806Z,1.4
2023-08-15T01:54:17.905Z,1.1
2023-08-15T01:59:18.364Z,1.3
2023-08-15T02:04:19.049Z,1.0
2023-08-15T02:09:20.039Z,1.2
2023-08-15T02:14:20.774Z,1.2
2023-08-15T02:19:21.553Z,1.2
2023-08-15T02:24:22.442Z,1.3
2023-08-15T02:29:23.072Z,1.0
2023-08-15T02:34:24.172Z,1.1
2023-08-15T02:39:24.658Z,1.1
2023-08-15T02:44:25.479Z,1.4
2023-08-15T02:49:26.159Z,1.1
2023-08-15T02:54:27.129Z,1.1
2023-08-15T02:59:27.797Z,1.1
2023-08-15T03:04:28.605Z,1.1
2023-08-15T03:09:29.376Z,1.0
2023-08-15T03:14:30.012Z,1.3
2023-08-15T03:19:30.949Z,1.3
2023-08-15T03:24:31.732Z,1.3
2023-08-15T03:29:32.431Z,1.3
2023-08-15T03:34:33.094Z,1.3
2023-08-15T03:39:34.054Z,1.2
2023-08-15T03:44:34.729Z,1.0
2023-08-15T03:49:35.496Z,1.4
2023-08-15T03:54:36.376Z,1.2
2023-08-15T03:59:37.027Z,1.2
2023-08-15T04:04:37.928Z,1.3
2023-08-15T04:09:38.750Z,1.1
2023-08-15T04:14:39.432Z,1.4
2023-08-15T04:19:40.110Z,1.3
2023-08-15T04:24:41.033Z,1.4
2023-08-15T04:29:41.703Z,1.6
2023-08-15T04:34:42.525Z,1.3
2023-08-15T04:39:43.435Z,1.1
2023-08-15T04:44:43.993Z,1.4
2023-08-15T04:54:45.751Z,1.3
2023-08-15T04:59:46.431Z,1.2
2023-08-15T05:04:47.199Z,1.4
2023-08-15T05:09:48.087Z,1.1
2023-08-15T05:14:48.707Z,1.3
2023-08-15T05:19:49.569Z,1.3
2023-08-15T05:24:50.411Z,1.6
2023-08-15T05:29:51.112Z,1.1
2023-08-15T05:34:52.230Z,0.9
2023-08-15T05:39:52.721Z,1.2
2023-08-15T05:44:53.529Z,1.1
2023-08-15T05:49:54.334Z,1.1
2023-08-15T05:54:55.346Z,1.0
2023-08-15T05:59:55.787Z,1.2
2023-08-15T06:04:56.615Z,1.1
2023-08-15T06:09:57.538Z,1.2
2023-08-15T06:14:58.197Z,1.2
2023-08-15T06:19:58.997Z,1.1
2023-08-15T06:25:01.054Z,1.0
2023-08-15T06:30:00.671Z,0.9
2023-08-15T06:35:01.406Z,1.1
2023-08-15T06:40:02.183Z,0.9
2023-08-15T06:45:02.899Z,1.0
2023-08-15T06:50:03.811Z,1.1
2023-08-15T06:55:04.616Z,1.0
2023-08-15T07:00:05.202Z,1.1
2023-08-15T07:05:06.019Z,1.0
2023-08-15T07:10:06.806Z,0.8
2023-08-15T07:15:07.568Z,1.0
2023-08-15T07:20:08.434Z,1.0
2023-08-15T07:25:09.185Z,0.9
2023-08-15T07:30:18.498Z,1.1
2023-08-15T07:35:10.724Z,0.9
2023-08-15T07:40:11.673Z,1.0
2023-08-15T07:45:12.282Z,1.0
2023-08-15T07:50:13.029Z,0.9
2023-08-15T07:55:14.020Z,0.8
2023-08-15T08:00:15.513Z,1.1
2023-08-15T08:05:15.605Z,0.9
2023-08-15T08:10:16.446Z,0.8
2023-08-15T08:15:17.195Z,0.9
2023-08-15T08:20:17.967Z,0.8
2023-08-15T08:25:18.967Z,0.9
2023-08-15T08:30:19.734Z,0.7
2023-08-15T08:35:20.556Z,1.1
2023-08-15T08:40:22.879Z,0.8
2023-08-15T08:45:22.075Z,1.0
2023-08-15T08:50:22.995Z,0.8
2023-08-15T08:55:23.911Z,0.9
2023-08-15T09:00:24.706Z,0.8
2023-08-15T09:05:25.548Z,0.9
2023-08-15T09:10:26.375Z,0.9
2023-08-15T09:15:27.301Z,1.2
2023-08-15T09:20:28.074Z,0.8
2023-08-15T09:25:29.097Z,0.8
2023-08-15T09:30:29.769Z,0.8
2023-08-15T09:35:31.446Z,0.8
2023-08-15T09:40:31.479Z,0.8
2023-08-15T09:45:32.129Z,1.0
2023-08-15T09:50:33.021Z,0.9
2023-08-15T09:55:34.016Z,0.7
2023-08-15T10:00:34.851Z,0.9
2023-08-15T10:05:35.632Z,0.8
2023-08-15T10:10:36.519Z,0.8
2023-08-15T10:15:37.163Z,0.7
2023-08-15T10:20:38.051Z,0.7
2023-08-15T10:25:39.062Z,0.8
2023-08-15T10:30:39.767Z,0.7
2023-08-15T10:35:40.636Z,0.8
2023-08-15T10:40:41.623Z,0.8
2023-08-15T10:45:42.186Z,0.7
2023-08-15T10:50:43.156Z,0.8
2023-08-15T10:55:44.326Z,0.7
2023-08-15T11:00:44.787Z,0.7
2023-08-15T11:05:45.728Z,0.6
2023-08-15T11:10:46.660Z,0.9
2023-08-15T11:15:47.515Z,0.9
2023-08-15T11:20:48.385Z,0.8
2023-08-15T11:26:04.893Z,0.8
2023-08-15T11:30:50.063Z,0.7
2023-08-15T11:35:50.942Z,0.7
2023-08-15T11:40:51.862Z,0.7
2023-08-15T11:45:52.680Z,0.7
2023-08-15T11:50:53.434Z,0.6
2023-08-15T11:55:54.451Z,0.4
2023-08-15T12:00:55.142Z,0.5
2023-08-15T12:05:56.080Z,0.5
2023-08-15T12:10:56.999Z,0.6
2023-08-15T12:15:57.836Z,0.6
2023-08-15T12:20:58.669Z,0.6
2023-08-15T12:25:59.637Z,0.5
2023-08-15T12:31:00.342Z,0.5
2023-08-15T12:36:01.095Z,0.6
2023-08-15T12:41:02.169Z,0.7
2023-08-15T12:46:03.184Z,0.6
2023-08-15T12:51:03.939Z,0.8
2023-08-15T12:56:05.034Z,0.7
2023-08-15T13:01:05.647Z,0.5
2023-08-15T13:06:06.498Z,0.6
2023-08-15T13:11:07.418Z,0.9
2023-08-15T13:16:08.171Z,0.8
2023-08-15T13:21:09.245Z,0.7
2023-08-15T13:26:09.988Z,0.7
2023-08-15T13:31:10.924Z,0.9
2023-08-15T13:36:11.651Z,0.7
2023-08-15T13:41:12.785Z,1.0
2023-08-15T13:46:13.564Z,1.0
2023-08-15T13:51:14.490Z,0.8
2023-08-15T13:56:15.505Z,0.9
2023-08-15T14:01:16.334Z,0.8
2023-08-15T14:06:17.273Z,1.0
2023-08-15T14:11:18.114Z,0.7
2023-08-15T14:16:19.043Z,0.9
2023-08-15T14:21:19.838Z,0.7
2023-08-15T14:26:20.776Z,0.8
2023-08-15T14:31:21.662Z,1.0
2023-08-15T14:36:22.549Z,0.6
2023-08-15T14:41:23.525Z,0.7
2023-08-15T14:46:24.410Z,0.7
2023-08-15T14:51:25.167Z,0.7
2023-08-15T14:56:26.280Z,0.6
2023-08-15T15:01:26.988Z,0.6
2023-08-15T15:06:27.917Z,0.6
2023-08-15T15:11:28.912Z,0.7
2023-08-15T15:16:29.859Z,0.8
2023-08-15T15:21:30.674Z,0.8
2023-08-15T15:26:31.556Z,0.8
2023-08-15T15:31:32.476Z,0.9
2023-08-15T15:36:33.254Z,0.8
2023-08-15T15:41:34.212Z,0.8
2023-08-15T15:46:48.997Z,0.6
2023-08-15T15:51:36.050Z,0.8
2023-08-15T15:56:37.057Z,0.7
2023-08-15T16:01:37.869Z,0.6
2023-08-15T16:06:38.745Z,0.6
2023-08-15T16:11:39.715Z,0.6
2023-08-15T16:16:40.534Z,0.5
2023-08-15T16:21:41.471Z,0.4
2023-08-15T16:26:42.481Z,0.5
2023-08-15T16:31:43.187Z,0.4
2023-08-15T16:36:44.156Z,0.5
2023-08-15T16:41:45.185Z,0.6
2023-08-15T16:46:45.925Z,0.6
2023-08-15T16:51:47.074Z,0.7
2023-08-15T16:56:47.921Z,0.8
2023-08-15T17:01:49.762Z,0.9
2023-08-15T17:06:49.648Z,0.8
2023-08-15T17:11:50.574Z,0.8
2023-08-15T17:16:51.435Z,0.9
2023-08-15T17:21:52.121Z,0.9
2023-08-15T17:26:53.246Z,0.8
2023-08-15T17:31:54.001Z,0.9
2023-08-15T17:36:54.807Z,1.0
2023-08-15T17:41:55.745Z,1.1
2023-08-15T17:47:11.983Z,1.0
2023-08-15T17:51:57.418Z,1.1
2023-08-15T17:56:58.450Z,1.2
2023-08-15T18:02:01.118Z,1.4
2023-08-15T18:07:00.073Z,1.2
2023-08-15T18:12:00.865Z,1.2
2023-08-15T18:17:01.929Z,1.1
2023-08-15T18:22:02.653Z,1.2
2023-08-15T18:27:03.689Z,1.2
2023-08-15T18:32:04.557Z,1.1
2023-08-15T18:37:05.404Z,1.0
2023-08-15T18:42:06.249Z,1.2
2023-08-15T18:47:07.184Z,1.3
2023-08-15T18:52:07.967Z,1.3
2023-08-15T18:57:09.008Z,1.3
2023-08-15T19:02:09.812Z,1.3
2023-08-15T19:07:10.640Z,1.2
2023-08-15T19:12:11.528Z,1.2
2023-08-15T19:17:12.325Z,1.4
2023-08-15T19:22:13.200Z,1.3
2023-08-15T19:27:14.268Z,1.2
2023-08-15T19:32:15.078Z,1.1
2023-08-15T19:37:23.412Z,1.1
2023-08-15T19:42:16.696Z,1.0
2023-08-15T19:47:17.589Z,1.0
2023-08-15T19:52:18.399Z,0.9
2023-08-15T19:57:19.266Z,1.2
2023-08-15T20:02:25.377Z,0.9
2023-08-15T20:07:20.859Z,0.8
2023-08-15T20:12:22.295Z,0.7
2023-08-15T20:17:22.595Z,0.7
2023-08-15T20:22:26.969Z,0.8
2023-08-15T20:27:24.246Z,0.6
2023-08-15T20:32:25.446Z,0.7
2023-08-15T20:37:25.980Z,0.6
2023-08-15T20:42:27.086Z,0.6
2023-08-15T20:47:27.645Z,0.7
2023-08-15T20:52:28.405Z,0.7
2023-08-15T20:57:29.243Z,0.5
2023-08-15T21:02:30.071Z,0.5
2023-08-15T21:07:30.838Z,0.6
2023-08-15T21:12:31.722Z,0.6
2023-08-15T21:17:32.484Z,0.7
2023-08-15T21:22:33.146Z,0.6
2023-08-15T21:27:34.063Z,0.8
2023-08-15T21:32:34.858Z,0.6
2023-08-15T21:37:35.595Z,0.6
2023-08-15T21:42:36.549Z,0.7
2023-08-15T21:47:37.164Z,0.7
2023-08-15T21:52:38.028Z,0.7
2023-08-15T21:57:38.958Z,0.6
2023-08-15T22:02:39.832Z,0.6
2023-08-15T22:07:40.443Z,0.8
2023-08-15T22:12:41.179Z,0.8
2023-08-15T22:17:45.843Z,0.7
2023-08-15T22:22:42.751Z,0.6
2023-08-15T22:27:43.529Z,0.6
2023-08-15T22:32:44.123Z,0.8
2023-08-15T22:37:44.961Z,0.8
2023-08-15T22:42:45.849Z,0.8
2023-08-15T22:47:46.467Z,0.5
2023-08-15T22:52:47.328Z,0.6
2023-08-15T22:57:47.942Z,0.7
2023-08-15T23:02:48.816Z,0.5
2023-08-15T23:07:49.431Z,0.6
2023-08-15T23:12:50.190Z,0.7
2023-08-15T23:17:50.997Z,0.6
2023-08-15T23:22:51.719Z,0.6
2023-08-15T23:27:52.554Z,0.6
2023-08-15T23:32:53.161Z,0.6
2023-08-15T23:37:53.878Z,0.6
2023-08-15T23:42:54.829Z,0.7
2023-08-15T23:47:55.514Z,0.6
2023-08-15T23:52:56.324Z,0.7
2023-08-15T23:57:57.142Z,0.5
